sensor_id;sensor_type;location;lat;lon;timestamp;P1;durP1;ratioP1;P2;durP2;ratioP2
34353;SDS011;20618;0.000;0.000;2023-10-31T00:02:14;9.40;;;2.90;;
34353;SDS011;20618;0.000;0.000;2023-10-31T00:04:40;8.18;;;2.40;;
34353;SDS011;20618;0.000;0.000;2023-10-31T00:07:06;7.25;;;2.40;;
34353;SDS011;20618;0.000;0.000;2023-10-31T00:09:32;8.18;;;2.50;;
34353;SDS011;20618;0.000;0.000;2023-10-31T00:11:58;7.13;;;2.05;;
34353;SDS011;20618;0.000;0.000;2023-10-31T00:14:25;7.78;;;2.30;;
34353;SDS011;20618;0.000;0.000;2023-10-31T00:16:52;8.55;;;2.30;;
34353;SDS011;20618;0.000;0.000;2023-10-31T00:19:18;8.38;;;2.30;;
34353;SDS011;20618;0.000;0.000;2023-10-31T00:21:44;7.90;;;2.10;;
34353;SDS011;20618;0.000;0.000;2023-10-31T00:24:10;11.82;;;2.50;;
34353;SDS011;20618;0.000;0.000;2023-10-31T00:26:37;5.28;;;2.03;;
34353;SDS011;20618;0.000;0.000;2023-10-31T00:29:03;8.35;;;2.72;;
34353;SDS011;20618;0.000;0.000;2023-10-31T00:31:29;7.45;;;2.40;;
34353;SDS011;20618;0.000;0.000;2023-10-31T00:33:55;7.18;;;2.40;;
34353;SDS011;20618;0.000;0.000;2023-10-31T00:36:22;5.15;;;2.17;;
34353;SDS011;20618;0.000;0.000;2023-10-31T00:38:48;6.75;;;2.10;;
34353;SDS011;20618;0.000;0.000;2023-10-31T00:41:14;8.63;;;2.35;;
34353;SDS011;20618;0.000;0.000;2023-10-31T00:43:40;5.28;;;1.90;;
34353;SDS011;20618;0.000;0.000;2023-10-31T00:46:07;5.97;;;2.17;;
34353;SDS011;20618;0.000;0.000;2023-10-31T00:48:33;9.10;;;1.98;;
34353;SDS011;20618;0.000;0.000;2023-10-31T00:51:02;9.20;;;2.50;;
34353;SDS011;20618;0.000;0.000;2023-10-31T00:53:29;7.63;;;2.17;;
34353;SDS011;20618;0.000;0.000;2023-10-31T00:55:55;9.68;;;2.70;;
34353;SDS011;20618;0.000;0.000;2023-10-31T00:58:21;7.65;;;2.10;;
34353;SDS011;20618;0.000;0.000;2023-10-31T01:00:47;7.93;;;2.78;;
34353;SDS011;20618;0.000;0.000;2023-10-31T01:03:13;7.97;;;2.63;;
34353;SDS011;20618;0.000;0.000;2023-10-31T01:05:39;5.65;;;2.25;;
34353;SDS011;20618;0.000;0.000;2023-10-31T01:08:05;8.80;;;2.22;;
34353;SDS011;20618;0.000;0.000;2023-10-31T01:10:32;7.07;;;2.30;;
34353;SDS011;20618;0.000;0.000;2023-10-31T01:12:58;6.10;;;2.30;;
34353;SDS011;20618;0.000;0.000;2023-10-31T01:15:24;8.98;;;2.08;;
34353;SDS011;20618;0.000;0.000;2023-10-31T01:17:50;8.18;;;1.88;;
34353;SDS011;20618;0.000;0.000;2023-10-31T01:20:16;10.80;;;2.17;;
34353;SDS011;20618;0.000;0.000;2023-10-31T01:22:42;6.10;;;2.22;;
34353;SDS011;20618;0.000;0.000;2023-10-31T01:25:08;7.75;;;2.65;;
34353;SDS011;20618;0.000;0.000;2023-10-31T01:27:35;6.88;;;2.28;;
34353;SDS011;20618;0.000;0.000;2023-10-31T01:30:02;4.75;;;1.92;;
34353;SDS011;20618;0.000;0.000;2023-10-31T01:32:28;7.47;;;2.13;;
34353;SDS011;20618;0.000;0.000;2023-10-31T01:34:54;7.45;;;2.00;;
34353;SDS011;20618;0.000;0.000;2023-10-31T01:37:20;7.72;;;2.10;;
34353;SDS011;20618;0.000;0.000;2023-10-31T01:39:47;5.57;;;1.95;;
34353;SDS011;20618;0.000;0.000;2023-10-31T01:42:14;7.45;;;1.92;;
34353;SDS011;20618;0.000;0.000;2023-10-31T01:44:40;5.35;;;1.70;;
34353;SDS011;20618;0.000;0.000;2023-10-31T01:47:07;7.32;;;2.30;;
34353;SDS011;20618;0.000;0.000;2023-10-31T01:49:33;5.25;;;2.00;;
34353;SDS011;20618;0.000;0.000;2023-10-31T01:52:00;6.70;;;2.00;;
34353;SDS011;20618;0.000;0.000;2023-10-31T01:54:27;5.85;;;2.00;;
34353;SDS011;20618;0.000;0.000;2023-10-31T01:56:56;8.18;;;1.80;;
34353;SDS011;20618;0.000;0.000;2023-10-31T01:59:24;7.30;;;2.45;;
34353;SDS011;20618;0.000;0.000;2023-10-31T02:01:50;6.57;;;2.22;;
34353;SDS011;20618;0.000;0.000;2023-10-31T02:04:16;6.65;;;2.17;;
34353;SDS011;20618;0.000;0.000;2023-10-31T02:06:42;6.90;;;2.00;;
34353;SDS011;20618;0.000;0.000;2023-10-31T02:09:09;7.88;;;2.17;;
34353;SDS011;20618;0.000;0.000;2023-10-31T02:11:35;7.18;;;2.40;;
34353;SDS011;20618;0.000;0.000;2023-10-31T02:14:01;9.40;;;2.30;;
34353;SDS011;20618;0.000;0.000;2023-10-31T02:16:27;9.45;;;2.30;;
34353;SDS011;20618;0.000;0.000;2023-10-31T02:18:53;5.88;;;2.03;;
34353;SDS011;20618;0.000;0.000;2023-10-31T02:21:20;5.93;;;1.88;;
34353;SDS011;20618;0.000;0.000;2023-10-31T02:23:58;5.75;;;1.95;;
34353;SDS011;20618;0.000;0.000;2023-10-31T02:26:31;8.02;;;2.70;;
34353;SDS011;20618;0.000;0.000;2023-10-31T02:28:58;6.82;;;2.28;;
34353;SDS011;20618;0.000;0.000;2023-10-31T02:31:25;5.80;;;2.03;;
34353;SDS011;20618;0.000;0.000;2023-10-31T02:33:51;6.25;;;1.58;;
34353;SDS011;20618;0.000;0.000;2023-10-31T02:36:17;5.85;;;2.25;;
34353;SDS011;20618;0.000;0.000;2023-10-31T02:38:44;6.22;;;1.80;;
34353;SDS011;20618;0.000;0.000;2023-10-31T02:41:11;6.65;;;2.20;;
34353;SDS011;20618;0.000;0.000;2023-10-31T02:43:37;6.80;;;1.98;;
34353;SDS011;20618;0.000;0.000;2023-10-31T02:46:04;4.68;;;1.63;;
34353;SDS011;20618;0.000;0.000;2023-10-31T02:48:30;5.50;;;1.80;;
34353;SDS011;20618;0.000;0.000;2023-10-31T02:51:03;5.55;;;1.80;;
34353;SDS011;20618;0.000;0.000;2023-10-31T02:53:29;5.63;;;2.15;;
34353;SDS011;20618;0.000;0.000;2023-10-31T02:55:56;5.43;;;1.75;;
34353;SDS011;20618;0.000;0.000;2023-10-31T02:58:22;5.63;;;2.13;;
34353;SDS011;20618;0.000;0.000;2023-10-31T03:00:48;5.38;;;2.00;;
34353;SDS011;20618;0.000;0.000;2023-10-31T03:03:15;3.22;;;1.50;;
34353;SDS011;20618;0.000;0.000;2023-10-31T03:05:41;9.85;;;2.22;;
34353;SDS011;20618;0.000;0.000;2023-10-31T03:08:07;8.25;;;2.13;;
34353;SDS011;20618;0.000;0.000;2023-10-31T03:10:35;5.68;;;2.17;;
34353;SDS011;20618;0.000;0.000;2023-10-31T03:13:01;6.43;;;2.22;;
34353;SDS011;20618;0.000;0.000;2023-10-31T03:15:28;8.00;;;2.08;;
34353;SDS011;20618;0.000;0.000;2023-10-31T03:17:54;5.40;;;1.58;;
34353;SDS011;20618;0.000;0.000;2023-10-31T03:20:20;5.35;;;2.08;;
34353;SDS011;20618;0.000;0.000;2023-10-31T03:22:46;6.00;;;2.00;;
34353;SDS011;20618;0.000;0.000;2023-10-31T03:25:12;7.80;;;1.92;;
34353;SDS011;20618;0.000;0.000;2023-10-31T03:27:38;6.90;;;2.10;;
34353;SDS011;20618;0.000;0.000;2023-10-31T03:30:05;6.50;;;1.60;;
34353;SDS011;20618;0.000;0.000;2023-10-31T03:32:31;6.35;;;2.22;;
34353;SDS011;20618;0.000;0.000;2023-10-31T03:34:57;5.32;;;1.80;;
34353;SDS011;20618;0.000;0.000;2023-10-31T03:37:23;6.25;;;2.20;;
34353;SDS011;20618;0.000;0.000;2023-10-31T03:39:49;5.13;;;1.60;;
34353;SDS011;20618;0.000;0.000;2023-10-31T03:42:15;5.85;;;2.20;;
34353;SDS011;20618;0.000;0.000;2023-10-31T03:44:42;5.95;;;1.92;;
34353;SDS011;20618;0.000;0.000;2023-10-31T03:47:08;5.60;;;2.28;;
34353;SDS011;20618;0.000;0.000;2023-10-31T03:49:37;5.28;;;1.92;;
34353;SDS011;20618;0.000;0.000;2023-10-31T03:52:03;5.90;;;1.70;;
34353;SDS011;20618;0.000;0.000;2023-10-31T03:54:30;5.93;;;2.20;;
34353;SDS011;20618;0.000;0.000;2023-10-31T03:56:56;5.38;;;1.73;;
34353;SDS011;20618;0.000;0.000;2023-10-31T03:59:22;4.05;;;1.80;;
34353;SDS011;20618;0.000;0.000;2023-10-31T04:01:48;8.48;;;2.03;;
34353;SDS011;20618;0.000;0.000;2023-10-31T04:04:15;6.13;;;2.00;;
34353;SDS011;20618;0.000;0.000;2023-10-31T04:06:41;6.50;;;2.00;;
34353;SDS011;20618;0.000;0.000;2023-10-31T04:09:08;7.55;;;2.10;;
34353;SDS011;20618;0.000;0.000;2023-10-31T04:11:35;7.32;;;1.92;;
34353;SDS011;20618;0.000;0.000;2023-10-31T04:14:01;6.10;;;2.20;;
34353;SDS011;20618;0.000;0.000;2023-10-31T04:16:29;6.13;;;2.25;;
34353;SDS011;20618;0.000;0.000;2023-10-31T04:18:55;5.53;;;1.98;;
34353;SDS011;20618;0.000;0.000;2023-10-31T04:21:21;5.05;;;1.73;;
34353;SDS011;20618;0.000;0.000;2023-10-31T04:23:47;6.15;;;2.13;;
34353;SDS011;20618;0.000;0.000;2023-10-31T04:26:13;7.35;;;2.35;;
34353;SDS011;20618;0.000;0.000;2023-10-31T04:28:41;6.90;;;2.10;;
34353;SDS011;20618;0.000;0.000;2023-10-31T04:31:07;4.85;;;1.90;;
34353;SDS011;20618;0.000;0.000;2023-10-31T04:33:33;4.07;;;1.52;;
34353;SDS011;20618;0.000;0.000;2023-10-31T04:35:59;8.80;;;2.20;;
34353;SDS011;20618;0.000;0.000;2023-10-31T04:38:27;9.18;;;1.98;;
34353;SDS011;20618;0.000;0.000;2023-10-31T04:40:53;6.07;;;2.00;;
34353;SDS011;20618;0.000;0.000;2023-10-31T04:43:19;8.15;;;1.95;;
34353;SDS011;20618;0.000;0.000;2023-10-31T04:45:45;6.65;;;2.03;;
34353;SDS011;20618;0.000;0.000;2023-10-31T04:48:12;5.45;;;1.90;;
34353;SDS011;20618;0.000;0.000;2023-10-31T04:50:38;6.03;;;1.90;;
34353;SDS011;20618;0.000;0.000;2023-10-31T04:53:04;8.68;;;2.45;;
34353;SDS011;20618;0.000;0.000;2023-10-31T04:55:30;4.18;;;2.03;;
34353;SDS011;20618;0.000;0.000;2023-10-31T04:57:56;4.15;;;1.60;;
34353;SDS011;20618;0.000;0.000;2023-10-31T05:00:23;5.95;;;1.63;;
34353;SDS011;20618;0.000;0.000;2023-10-31T05:02:49;6.03;;;1.90;;
34353;SDS011;20618;0.000;0.000;2023-10-31T05:05:15;7.28;;;2.20;;
34353;SDS011;20618;0.000;0.000;2023-10-31T05:07:41;5.35;;;1.90;;
34353;SDS011;20618;0.000;0.000;2023-10-31T05:10:08;5.15;;;2.05;;
34353;SDS011;20618;0.000;0.000;2023-10-31T05:12:35;6.22;;;1.83;;
34353;SDS011;20618;0.000;0.000;2023-10-31T05:15:03;3.75;;;1.65;;
34353;SDS011;20618;0.000;0.000;2023-10-31T05:17:29;4.68;;;1.90;;
34353;SDS011;20618;0.000;0.000;2023-10-31T05:19:56;5.03;;;1.80;;
34353;SDS011;20618;0.000;0.000;2023-10-31T05:22:22;4.18;;;1.60;;
34353;SDS011;20618;0.000;0.000;2023-10-31T05:24:48;4.65;;;1.90;;
34353;SDS011;20618;0.000;0.000;2023-10-31T05:27:14;4.82;;;1.48;;
34353;SDS011;20618;0.000;0.000;2023-10-31T05:29:40;4.55;;;1.90;;
34353;SDS011;20618;0.000;0.000;2023-10-31T05:32:06;5.20;;;1.63;;
34353;SDS011;20618;0.000;0.000;2023-10-31T05:34:32;6.68;;;1.83;;
34353;SDS011;20618;0.000;0.000;2023-10-31T05:36:58;4.65;;;2.00;;
34353;SDS011;20618;0.000;0.000;2023-10-31T05:39:25;4.55;;;1.60;;
34353;SDS011;20618;0.000;0.000;2023-10-31T05:41:51;3.03;;;1.52;;
34353;SDS011;20618;0.000;0.000;2023-10-31T05:44:17;3.58;;;1.70;;
34353;SDS011;20618;0.000;0.000;2023-10-31T05:46:44;5.15;;;1.70;;
34353;SDS011;20618;0.000;0.000;2023-10-31T05:49:10;4.97;;;1.67;;
34353;SDS011;20618;0.000;0.000;2023-10-31T05:51:36;5.68;;;1.90;;
34353;SDS011;20618;0.000;0.000;2023-10-31T05:54:04;5.10;;;1.88;;
34353;SDS011;20618;0.000;0.000;2023-10-31T05:56:32;5.57;;;1.85;;
34353;SDS011;20618;0.000;0.000;2023-10-31T05:58:59;4.55;;;1.60;;
34353;SDS011;20618;0.000;0.000;2023-10-31T06:01:25;5.60;;;1.80;;
34353;SDS011;20618;0.000;0.000;2023-10-31T06:03:51;5.13;;;1.65;;
34353;SDS011;20618;0.000;0.000;2023-10-31T06:06:17;4.35;;;1.58;;
34353;SDS011;20618;0.000;0.000;2023-10-31T06:08:43;4.88;;;1.77;;
34353;SDS011;20618;0.000;0.000;2023-10-31T06:11:10;4.97;;;1.90;;
34353;SDS011;20618;0.000;0.000;2023-10-31T06:16:07;4.15;;;1.45;;
34353;SDS011;20618;0.000;0.000;2023-10-31T06:18:33;3.97;;;2.00;;
34353;SDS011;20618;0.000;0.000;2023-10-31T06:21:00;3.67;;;1.70;;
34353;SDS011;20618;0.000;0.000;2023-10-31T06:23:26;4.40;;;1.70;;
34353;SDS011;20618;0.000;0.000;2023-10-31T06:25:52;2.88;;;1.55;;
34353;SDS011;20618;0.000;0.000;2023-10-31T06:28:18;4.97;;;1.73;;
34353;SDS011;20618;0.000;0.000;2023-10-31T06:30:44;3.25;;;1.63;;
34353;SDS011;20618;0.000;0.000;2023-10-31T06:33:10;3.92;;;1.80;;
34353;SDS011;20618;0.000;0.000;2023-10-31T06:35:37;3.88;;;1.40;;
34353;SDS011;20618;0.000;0.000;2023-10-31T06:38:03;3.03;;;1.50;;
34353;SDS011;20618;0.000;0.000;2023-10-31T06:40:29;4.28;;;1.70;;
34353;SDS011;20618;0.000;0.000;2023-10-31T06:42:55;3.17;;;1.50;;
34353;SDS011;20618;0.000;0.000;2023-10-31T06:45:22;2.65;;;1.30;;
34353;SDS011;20618;0.000;0.000;2023-10-31T06:47:48;3.92;;;1.70;;
34353;SDS011;20618;0.000;0.000;2023-10-31T06:50:14;3.97;;;1.60;;
34353;SDS011;20618;0.000;0.000;2023-10-31T06:52:40;4.93;;;1.52;;
34353;SDS011;20618;0.000;0.000;2023-10-31T06:55:07;2.92;;;1.40;;
34353;SDS011;20618;0.000;0.000;2023-10-31T06:57:33;5.68;;;1.63;;
34353;SDS011;20618;0.000;0.000;2023-10-31T06:59:59;5.05;;;1.58;;
34353;SDS011;20618;0.000;0.000;2023-10-31T07:02:25;2.65;;;1.30;;
34353;SDS011;20618;0.000;0.000;2023-10-31T07:04:51;4.50;;;1.70;;
34353;SDS011;20618;0.000;0.000;2023-10-31T07:07:17;5.57;;;1.77;;
34353;SDS011;20618;0.000;0.000;2023-10-31T07:09:43;5.43;;;1.50;;
34353;SDS011;20618;0.000;0.000;2023-10-31T07:12:10;3.47;;;1.42;;
34353;SDS011;20618;0.000;0.000;2023-10-31T07:14:36;3.67;;;1.65;;
34353;SDS011;20618;0.000;0.000;2023-10-31T07:17:02;3.97;;;1.40;;
34353;SDS011;20618;0.000;0.000;2023-10-31T07:19:28;3.60;;;1.50;;
34353;SDS011;20618;0.000;0.000;2023-10-31T07:21:54;3.45;;;1.45;;
34353;SDS011;20618;0.000;0.000;2023-10-31T07:24:20;7.78;;;1.95;;
34353;SDS011;20618;0.000;0.000;2023-10-31T07:26:46;3.65;;;1.27;;
34353;SDS011;20618;0.000;0.000;2023-10-31T07:29:13;6.82;;;1.83;;
34353;SDS011;20618;0.000;0.000;2023-10-31T07:31:39;5.13;;;1.60;;
34353;SDS011;20618;0.000;0.000;2023-10-31T07:34:05;9.48;;;1.80;;
34353;SDS011;20618;0.000;0.000;2023-10-31T07:36:31;8.05;;;1.70;;
34353;SDS011;20618;0.000;0.000;2023-10-31T07:39:00;4.22;;;1.40;;
34353;SDS011;20618;0.000;0.000;2023-10-31T07:41:26;6.40;;;1.75;;
34353;SDS011;20618;0.000;0.000;2023-10-31T07:43:52;6.32;;;1.83;;
34353;SDS011;20618;0.000;0.000;2023-10-31T07:46:18;7.32;;;1.50;;
34353;SDS011;20618;0.000;0.000;2023-10-31T07:48:45;4.32;;;1.45;;
34353;SDS011;20618;0.000;0.000;2023-10-31T07:51:11;5.95;;;1.80;;
34353;SDS011;20618;0.000;0.000;2023-10-31T07:53:37;10.40;;;2.22;;
34353;SDS011;20618;0.000;0.000;2023-10-31T07:56:03;8.75;;;1.92;;
34353;SDS011;20618;0.000;0.000;2023-10-31T07:58:29;6.30;;;1.88;;
34353;SDS011;20618;0.000;0.000;2023-10-31T08:00:56;4.32;;;1.70;;
34353;SDS011;20618;0.000;0.000;2023-10-31T08:03:22;2.78;;;1.52;;
34353;SDS011;20618;0.000;0.000;2023-10-31T08:05:48;4.82;;;1.65;;
34353;SDS011;20618;0.000;0.000;2023-10-31T08:08:14;3.38;;;1.45;;
34353;SDS011;20618;0.000;0.000;2023-10-31T08:10:40;5.43;;;1.83;;
34353;SDS011;20618;0.000;0.000;2023-10-31T08:13:06;6.57;;;1.90;;
34353;SDS011;20618;0.000;0.000;2023-10-31T08:15:33;5.53;;;1.48;;
34353;SDS011;20618;0.000;0.000;2023-10-31T08:17:59;5.60;;;2.00;;
34353;SDS011;20618;0.000;0.000;2023-10-31T08:20:25;5.10;;;1.58;;
34353;SDS011;20618;0.000;0.000;2023-10-31T08:22:51;7.57;;;1.80;;
34353;SDS011;20618;0.000;0.000;2023-10-31T08:25:17;10.60;;;1.95;;
34353;SDS011;20618;0.000;0.000;2023-10-31T08:27:44;6.15;;;1.60;;
34353;SDS011;20618;0.000;0.000;2023-10-31T08:30:10;8.55;;;1.80;;
34353;SDS011;20618;0.000;0.000;2023-10-31T08:32:36;10.45;;;2.13;;
34353;SDS011;20618;0.000;0.000;2023-10-31T08:35:03;8.68;;;1.73;;
34353;SDS011;20618;0.000;0.000;2023-10-31T08:37:29;9.52;;;2.05;;
34353;SDS011;20618;0.000;0.000;2023-10-31T08:39:55;8.80;;;2.17;;
34353;SDS011;20618;0.000;0.000;2023-10-31T08:42:21;8.95;;;1.98;;
34353;SDS011;20618;0.000;0.000;2023-10-31T08:44:47;7.60;;;1.92;;
34353;SDS011;20618;0.000;0.000;2023-10-31T08:47:14;12.32;;;2.13;;
34353;SDS011;20618;0.000;0.000;2023-10-31T08:49:40;18.70;;;3.17;;
34353;SDS011;20618;0.000;0.000;2023-10-31T08:52:06;13.20;;;2.47;;
34353;SDS011;20618;0.000;0.000;2023-10-31T08:54:32;15.02;;;2.30;;
34353;SDS011;20618;0.000;0.000;2023-10-31T08:56:58;11.00;;;2.45;;
34353;SDS011;20618;0.000;0.000;2023-10-31T08:59:24;14.52;;;2.00;;
34353;SDS011;20618;0.000;0.000;2023-10-31T09:01:50;17.27;;;2.70;;
34353;SDS011;20618;0.000;0.000;2023-10-31T09:04:17;21.30;;;3.17;;
34353;SDS011;20618;0.000;0.000;2023-10-31T09:06:43;25.40;;;3.55;;
34353;SDS011;20618;0.000;0.000;2023-10-31T09:09:09;19.27;;;2.85;;
34353;SDS011;20618;0.000;0.000;2023-10-31T09:11:35;15.02;;;2.72;;
34353;SDS011;20618;0.000;0.000;2023-10-31T09:14:01;17.05;;;3.03;;
34353;SDS011;20618;0.000;0.000;2023-10-31T09:16:28;15.80;;;3.30;;
34353;SDS011;20618;0.000;0.000;2023-10-31T09:18:54;24.65;;;2.78;;
34353;SDS011;20618;0.000;0.000;2023-10-31T09:21:20;21.95;;;2.72;;
34353;SDS011;20618;0.000;0.000;2023-10-31T09:23:46;15.85;;;2.65;;
34353;SDS011;20618;0.000;0.000;2023-10-31T09:26:13;12.32;;;2.80;;
34353;SDS011;20618;0.000;0.000;2023-10-31T09:28:39;12.65;;;2.35;;
34353;SDS011;20618;0.000;0.000;2023-10-31T09:31:07;15.60;;;2.67;;
34353;SDS011;20618;0.000;0.000;2023-10-31T09:33:34;9.15;;;2.20;;
34353;SDS011;20618;0.000;0.000;2023-10-31T09:36:00;11.90;;;2.20;;
34353;SDS011;20618;0.000;0.000;2023-10-31T09:38:27;14.75;;;2.70;;
34353;SDS011;20618;0.000;0.000;2023-10-31T09:40:54;20.23;;;3.00;;
34353;SDS011;20618;0.000;0.000;2023-10-31T09:43:20;17.25;;;3.08;;
34353;SDS011;20618;0.000;0.000;2023-10-31T09:45:46;15.43;;;2.38;;
34353;SDS011;20618;0.000;0.000;2023-10-31T09:48:13;18.67;;;2.95;;
34353;SDS011;20618;0.000;0.000;2023-10-31T09:50:39;16.48;;;3.65;;
34353;SDS011;20618;0.000;0.000;2023-10-31T09:53:06;22.17;;;3.28;;
34353;SDS011;20618;0.000;0.000;2023-10-31T09:55:33;20.38;;;3.60;;
34353;SDS011;20618;0.000;0.000;2023-10-31T09:58:00;26.05;;;3.97;;
34353;SDS011;20618;0.000;0.000;2023-10-31T10:00:26;21.80;;;3.30;;
34353;SDS011;20618;0.000;0.000;2023-10-31T10:02:52;20.98;;;3.60;;
34353;SDS011;20618;0.000;0.000;2023-10-31T10:05:20;17.35;;;3.72;;
34353;SDS011;20618;0.000;0.000;2023-10-31T10:07:46;20.83;;;3.65;;
34353;SDS011;20618;0.000;0.000;2023-10-31T10:10:12;21.40;;;3.60;;
34353;SDS011;20618;0.000;0.000;2023-10-31T10:12:41;23.35;;;3.42;;
34353;SDS011;20618;0.000;0.000;2023-10-31T10:15:07;27.75;;;3.85;;
34353;SDS011;20618;0.000;0.000;2023-10-31T10:17:34;21.95;;;3.45;;
34353;SDS011;20618;0.000;0.000;2023-10-31T10:20:06;17.63;;;3.45;;
34353;SDS011;20618;0.000;0.000;2023-10-31T10:22:36;20.33;;;3.75;;
34353;SDS011;20618;0.000;0.000;2023-10-31T10:25:04;19.57;;;3.00;;
34353;SDS011;20618;0.000;0.000;2023-10-31T10:27:30;22.33;;;3.72;;
34353;SDS011;20618;0.000;0.000;2023-10-31T10:29:56;21.77;;;3.90;;
34353;SDS011;20618;0.000;0.000;2023-10-31T10:32:22;18.80;;;2.88;;
34353;SDS011;20618;0.000;0.000;2023-10-31T10:34:49;15.05;;;2.78;;
34353;SDS011;20618;0.000;0.000;2023-10-31T10:37:15;15.20;;;3.22;;
34353;SDS011;20618;0.000;0.000;2023-10-31T10:39:42;18.25;;;3.15;;
34353;SDS011;20618;0.000;0.000;2023-10-31T10:42:15;15.40;;;3.25;;
34353;SDS011;20618;0.000;0.000;2023-10-31T10:44:46;17.30;;;3.05;;
34353;SDS011;20618;0.000;0.000;2023-10-31T10:47:14;17.45;;;2.95;;
34353;SDS011;20618;0.000;0.000;2023-10-31T10:49:41;23.02;;;3.92;;
34353;SDS011;20618;0.000;0.000;2023-10-31T10:52:22;22.98;;;3.88;;
34353;SDS011;20618;0.000;0.000;2023-10-31T11:00:05;33.25;;;4.60;;
34353;SDS011;20618;0.000;0.000;2023-10-31T11:02:38;36.58;;;5.60;;
34353;SDS011;20618;0.000;0.000;2023-10-31T11:05:06;24.15;;;4.53;;
34353;SDS011;20618;0.000;0.000;2023-10-31T11:07:33;20.20;;;4.05;;
34353;SDS011;20618;0.000;0.000;2023-10-31T11:09:59;18.20;;;4.10;;
34353;SDS011;20618;0.000;0.000;2023-10-31T11:12:30;32.03;;;4.28;;
34353;SDS011;20618;0.000;0.000;2023-10-31T11:14:57;29.65;;;4.32;;
34353;SDS011;20618;0.000;0.000;2023-10-31T11:17:25;29.52;;;5.20;;
34353;SDS011;20618;0.000;0.000;2023-10-31T11:19:52;26.90;;;4.90;;
34353;SDS011;20618;0.000;0.000;2023-10-31T11:22:20;26.50;;;4.32;;
34353;SDS011;20618;0.000;0.000;2023-10-31T11:24:48;21.92;;;4.38;;
34353;SDS011;20618;0.000;0.000;2023-10-31T11:27:14;25.10;;;4.63;;
34353;SDS011;20618;0.000;0.000;2023-10-31T11:29:42;23.15;;;4.35;;
34353;SDS011;20618;0.000;0.000;2023-10-31T11:32:09;25.80;;;4.60;;
34353;SDS011;20618;0.000;0.000;2023-10-31T11:34:36;21.48;;;4.07;;
34353;SDS011;20618;0.000;0.000;2023-10-31T11:40:14;23.05;;;4.10;;
34353;SDS011;20618;0.000;0.000;2023-10-31T11:42:34;31.95;;;5.03;;
34353;SDS011;20618;0.000;0.000;2023-10-31T11:45:02;20.58;;;4.20;;
34353;SDS011;20618;0.000;0.000;2023-10-31T11:47:44;31.85;;;6.20;;
34353;SDS011;20618;0.000;0.000;2023-10-31T11:50:10;22.88;;;4.85;;
34353;SDS011;20618;0.000;0.000;2023-10-31T11:52:37;42.08;;;5.60;;
34353;SDS011;20618;0.000;0.000;2023-10-31T11:55:04;21.75;;;4.72;;
34353;SDS011;20618;0.000;0.000;2023-10-31T11:57:31;36.35;;;5.13;;
34353;SDS011;20618;0.000;0.000;2023-10-31T11:59:57;40.90;;;6.47;;
34353;SDS011;20618;0.000;0.000;2023-10-31T12:02:23;153.63;;;25.20;;
34353;SDS011;20618;0.000;0.000;2023-10-31T12:04:50;105.90;;;17.35;;
34353;SDS011;20618;0.000;0.000;2023-10-31T12:07:18;40.40;;;7.13;;
34353;SDS011;20618;0.000;0.000;2023-10-31T12:09:48;47.55;;;7.88;;
34353;SDS011;20618;0.000;0.000;2023-10-31T12:12:14;29.45;;;5.28;;
34353;SDS011;20618;0.000;0.000;2023-10-31T12:14:40;42.30;;;6.63;;
34353;SDS011;20618;0.000;0.000;2023-10-31T12:17:07;35.65;;;5.32;;
34353;SDS011;20618;0.000;0.000;2023-10-31T12:19:35;36.45;;;5.88;;
34353;SDS011;20618;0.000;0.000;2023-10-31T12:22:01;27.30;;;4.97;;
34353;SDS011;20618;0.000;0.000;2023-10-31T12:24:28;87.32;;;16.92;;
34353;SDS011;20618;0.000;0.000;2023-10-31T12:26:54;35.47;;;6.55;;
34353;SDS011;20618;0.000;0.000;2023-10-31T12:29:20;33.97;;;6.53;;
34353;SDS011;20618;0.000;0.000;2023-10-31T12:31:47;43.38;;;6.10;;
34353;SDS011;20618;0.000;0.000;2023-10-31T12:34:18;26.90;;;5.32;;
34353;SDS011;20618;0.000;0.000;2023-10-31T12:36:45;33.10;;;5.30;;
34353;SDS011;20618;0.000;0.000;2023-10-31T12:39:12;35.83;;;6.07;;
34353;SDS011;20618;0.000;0.000;2023-10-31T12:41:38;29.80;;;5.28;;
34353;SDS011;20618;0.000;0.000;2023-10-31T12:44:05;28.13;;;5.65;;
34353;SDS011;20618;0.000;0.000;2023-10-31T12:46:33;26.90;;;5.75;;
34353;SDS011;20618;0.000;0.000;2023-10-31T12:49:00;34.92;;;6.25;;
34353;SDS011;20618;0.000;0.000;2023-10-31T12:51:26;47.55;;;7.38;;
34353;SDS011;20618;0.000;0.000;2023-10-31T12:53:53;41.22;;;7.47;;
34353;SDS011;20618;0.000;0.000;2023-10-31T12:56:36;35.30;;;5.95;;
34353;SDS011;20618;0.000;0.000;2023-10-31T12:59:05;31.98;;;5.53;;
34353;SDS011;20618;0.000;0.000;2023-10-31T13:01:33;25.65;;;4.28;;
34353;SDS011;20618;0.000;0.000;2023-10-31T13:04:00;26.73;;;5.15;;
34353;SDS011;20618;0.000;0.000;2023-10-31T13:06:26;27.65;;;5.30;;
34353;SDS011;20618;0.000;0.000;2023-10-31T13:08:54;19.20;;;4.43;;
34353;SDS011;20618;0.000;0.000;2023-10-31T13:11:21;21.33;;;5.00;;
34353;SDS011;20618;0.000;0.000;2023-10-31T13:13:51;21.15;;;4.13;;
34353;SDS011;20618;0.000;0.000;2023-10-31T13:16:18;24.60;;;4.97;;
34353;SDS011;20618;0.000;0.000;2023-10-31T13:18:44;21.77;;;4.80;;
34353;SDS011;20618;0.000;0.000;2023-10-31T13:21:10;18.50;;;4.95;;
34353;SDS011;20618;0.000;0.000;2023-10-31T13:23:39;18.13;;;4.47;;
34353;SDS011;20618;0.000;0.000;2023-10-31T13:26:08;18.75;;;4.90;;
34353;SDS011;20618;0.000;0.000;2023-10-31T13:28:34;22.30;;;4.95;;
34353;SDS011;20618;0.000;0.000;2023-10-31T13:31:00;22.67;;;5.65;;
34353;SDS011;20618;0.000;0.000;2023-10-31T13:33:27;29.63;;;5.20;;
34353;SDS011;20618;0.000;0.000;2023-10-31T13:35:54;36.65;;;5.88;;
34353;SDS011;20618;0.000;0.000;2023-10-31T13:38:20;26.08;;;5.10;;
34353;SDS011;20618;0.000;0.000;2023-10-31T13:40:46;28.23;;;6.20;;
34353;SDS011;20618;0.000;0.000;2023-10-31T13:43:13;26.17;;;5.30;;
34353;SDS011;20618;0.000;0.000;2023-10-31T13:45:39;31.50;;;6.07;;
34353;SDS011;20618;0.000;0.000;2023-10-31T13:48:05;32.67;;;5.70;;
34353;SDS011;20618;0.000;0.000;2023-10-31T13:50:31;54.80;;;7.72;;
34353;SDS011;20618;0.000;0.000;2023-10-31T13:52:58;100.70;;;13.50;;
34353;SDS011;20618;0.000;0.000;2023-10-31T13:55:24;62.95;;;8.82;;
34353;SDS011;20618;0.000;0.000;2023-10-31T13:57:51;33.28;;;7.05;;
34353;SDS011;20618;0.000;0.000;2023-10-31T14:00:17;29.58;;;6.28;;
34353;SDS011;20618;0.000;0.000;2023-10-31T14:02:43;30.80;;;6.28;;
34353;SDS011;20618;0.000;0.000;2023-10-31T14:05:09;31.00;;;6.43;;
34353;SDS011;20618;0.000;0.000;2023-10-31T14:07:35;38.70;;;6.60;;
34353;SDS011;20618;0.000;0.000;2023-10-31T14:10:01;38.45;;;6.35;;
34353;SDS011;20618;0.000;0.000;2023-10-31T14:12:28;32.40;;;5.82;;
34353;SDS011;20618;0.000;0.000;2023-10-31T14:14:54;31.38;;;6.40;;
34353;SDS011;20618;0.000;0.000;2023-10-31T14:17:20;24.23;;;6.03;;
34353;SDS011;20618;0.000;0.000;2023-10-31T14:19:48;27.02;;;5.70;;
34353;SDS011;20618;0.000;0.000;2023-10-31T14:22:14;28.77;;;6.45;;
34353;SDS011;20618;0.000;0.000;2023-10-31T14:24:40;28.70;;;5.00;;
34353;SDS011;20618;0.000;0.000;2023-10-31T14:27:06;27.75;;;5.78;;
34353;SDS011;20618;0.000;0.000;2023-10-31T14:29:32;24.35;;;5.70;;
34353;SDS011;20618;0.000;0.000;2023-10-31T14:32:06;30.75;;;6.32;;
34353;SDS011;20618;0.000;0.000;2023-10-31T14:34:32;27.02;;;5.55;;
34353;SDS011;20618;0.000;0.000;2023-10-31T14:36:58;29.35;;;6.18;;
34353;SDS011;20618;0.000;0.000;2023-10-31T14:39:24;28.77;;;6.43;;
34353;SDS011;20618;0.000;0.000;2023-10-31T14:41:50;31.50;;;5.57;;
34353;SDS011;20618;0.000;0.000;2023-10-31T14:44:16;33.45;;;5.70;;
34353;SDS011;20618;0.000;0.000;2023-10-31T14:46:43;33.63;;;6.43;;
34353;SDS011;20618;0.000;0.000;2023-10-31T14:49:09;33.92;;;5.82;;
34353;SDS011;20618;0.000;0.000;2023-10-31T14:51:36;35.17;;;6.88;;
34353;SDS011;20618;0.000;0.000;2023-10-31T14:54:02;31.35;;;6.05;;
34353;SDS011;20618;0.000;0.000;2023-10-31T14:56:28;46.35;;;7.28;;
34353;SDS011;20618;0.000;0.000;2023-10-31T14:58:55;42.45;;;6.70;;
34353;SDS011;20618;0.000;0.000;2023-10-31T15:01:21;45.70;;;7.10;;
34353;SDS011;20618;0.000;0.000;2023-10-31T15:03:48;29.88;;;6.10;;